This is the latest recevied weather packets stored in our database for station/object TAPIOLA. If no packets are shown the sender has not sent any weather packets the latest 10 day(s).
| Time | Temp. | Humidity | Pressure | Rain* | Wind** | Luminosity | Snow |
|---|---|---|---|---|---|---|---|
| 1777596416 | 8.33° C | 78% | 1021.2 hPa | 0 mm | - | - | - |
| 1777595216 | 8.33° C | 77% | 1021.1 hPa | 0 mm | - | - | - |
| 1777594015 | 8.33° C | 76% | 1021.1 hPa | 0 mm | - | - | - |
| 1777592815 | 8.89° C | 75% | 1021.2 hPa | 0 mm | - | - | - |
| 1777591615 | 9.44° C | 73% | 1021.3 hPa | 0 mm | - | - | - |
| 1777590415 | 9.44° C | 72% | 1021.2 hPa | 0 mm | - | - | - |
| 1777589215 | 10° C | 71% | 1021.1 hPa | 0 mm | - | - | - |
| 1777588015 | 10° C | 70% | 1021.1 hPa | 0 mm | - | - | - |
| 1777586815 | 10.56° C | 69% | 1021 hPa | 0 mm | - | - | - |
| 1777585615 | 10.56° C | 67% | 1020.9 hPa | 0 mm | - | - | - |
| 1777584415 | 11.67° C | 65% | 1020.9 hPa | 0 mm | - | - | - |
| 1777583214 | 11.67° C | 64% | 1020.8 hPa | 0 mm | - | - | - |
| 1777582014 | 12.22° C | 62% | 1020.8 hPa | 0 mm | - | - | - |
| 1777580815 | 12.78° C | 60% | 1020.7 hPa | 0 mm | - | - | - |
| 1777579614 | 12.78° C | 59% | 1020.5 hPa | 0 mm | - | - | - |
| 1777578414 | 13.33° C | 59% | 1020.5 hPa | 0 mm | - | - | - |
| 1777577214 | 13.33° C | 61% | 1020.4 hPa | 0 mm | - | - | - |
| 1777576014 | 12.22° C | 67% | 1020.4 hPa | 0 mm | - | - | - |
| 1777574814 | 10.56° C | 77% | 1020.1 hPa | 0 mm | - | - | - |
| 1777573614 | 11.11° C | 75% | 1020 hPa | 0 mm | - | - | - |
| 1777572414 | 11.11° C | 75% | 1019.9 hPa | 0 mm | - | - | - |
| 1777571214 | 11.67° C | 71% | 1019.9 hPa | 0 mm | - | - | - |
| 1777570014 | 12.22° C | 69% | 1019.8 hPa | 0 mm | - | - | - |
| 1777568814 | 12.78° C | 65% | 1019.8 hPa | 0 mm | - | - | - |
| 1777567614 | 12.78° C | 65% | 1019.8 hPa | 0 mm | - | - | - |
* Rain latest hour (hover to see other rain measurements)
** Current wind speed in m/s (hover to see current wind gust speed)